sensor_id;sensor_type;location;lat;lon;timestamp;temperature;humidity
27534;DHT22;14973;51.460;7.008;2023-03-23T00:01:12;11.70;99.90
27534;DHT22;14973;51.460;7.008;2023-03-23T00:03:45;11.80;99.90
27534;DHT22;14973;51.460;7.008;2023-03-23T00:06:11;11.80;99.90
27534;DHT22;14973;51.460;7.008;2023-03-23T00:08:47;11.90;99.90
27534;DHT22;14973;51.460;7.008;2023-03-23T00:11:17;11.90;99.90
27534;DHT22;14973;51.460;7.008;2023-03-23T00:13:45;12.00;99.90
27534;DHT22;14973;51.460;7.008;2023-03-23T00:16:12;12.00;99.90
27534;DHT22;14973;51.460;7.008;2023-03-23T00:18:55;12.10;99.90
27534;DHT22;14973;51.460;7.008;2023-03-23T00:21:23;12.10;99.90
27534;DHT22;14973;51.460;7.008;2023-03-23T00:24:06;12.20;99.90
27534;DHT22;14973;51.460;7.008;2023-03-23T00:26:33;12.20;99.90
27534;DHT22;14973;51.460;7.008;2023-03-23T00:29:07;12.20;99.90
27534;DHT22;14973;51.460;7.008;2023-03-23T00:31:33;12.30;99.90
27534;DHT22;14973;51.460;7.008;2023-03-23T00:34:03;12.30;99.90
27534;DHT22;14973;51.460;7.008;2023-03-23T00:36:33;12.30;99.90
27534;DHT22;14973;51.460;7.008;2023-03-23T00:39:01;12.30;99.90
27534;DHT22;14973;51.460;7.008;2023-03-23T00:41:28;12.40;99.90
27534;DHT22;14973;51.460;7.008;2023-03-23T00:43:55;12.40;99.90
27534;DHT22;14973;51.460;7.008;2023-03-23T00:46:21;12.40;99.90
27534;DHT22;14973;51.460;7.008;2023-03-23T00:48:48;12.50;99.90
27534;DHT22;14973;51.460;7.008;2023-03-23T00:51:16;12.50;99.90
27534;DHT22;14973;51.460;7.008;2023-03-23T00:53:42;12.50;99.90
27534;DHT22;14973;51.460;7.008;2023-03-23T00:56:08;12.60;99.90
27534;DHT22;14973;51.460;7.008;2023-03-23T00:58:34;12.60;99.90
27534;DHT22;14973;51.460;7.008;2023-03-23T01:00:59;12.60;99.90
27534;DHT22;14973;51.460;7.008;2023-03-23T01:03:25;12.60;99.90
27534;DHT22;14973;51.460;7.008;2023-03-23T01:05:52;12.60;99.90
27534;DHT22;14973;51.460;7.008;2023-03-23T01:08:18;12.60;99.90
27534;DHT22;14973;51.460;7.008;2023-03-23T01:10:45;12.60;99.90
27534;DHT22;14973;51.460;7.008;2023-03-23T01:13:11;12.60;99.90
27534;DHT22;14973;51.460;7.008;2023-03-23T01:15:37;12.60;99.90
27534;DHT22;14973;51.460;7.008;2023-03-23T01:18:03;12.70;99.90
27534;DHT22;14973;51.460;7.008;2023-03-23T01:20:29;12.70;99.90
27534;DHT22;14973;51.460;7.008;2023-03-23T01:22:57;12.60;99.90
27534;DHT22;14973;51.460;7.008;2023-03-23T01:25:26;12.60;99.90
27534;DHT22;14973;51.460;7.008;2023-03-23T01:27:53;12.60;99.90
27534;DHT22;14973;51.460;7.008;2023-03-23T01:30:18;12.60;99.90
27534;DHT22;14973;51.460;7.008;2023-03-23T01:32:44;12.60;99.90
27534;DHT22;14973;51.460;7.008;2023-03-23T01:35:09;12.60;99.90
27534;DHT22;14973;51.460;7.008;2023-03-23T01:37:37;12.60;99.90
27534;DHT22;14973;51.460;7.008;2023-03-23T01:40:02;12.60;99.90
27534;DHT22;14973;51.460;7.008;2023-03-23T01:42:32;12.60;99.90
27534;DHT22;14973;51.460;7.008;2023-03-23T01:47:47;12.70;99.90
27534;DHT22;14973;51.460;7.008;2023-03-23T01:50:14;12.70;99.90
27534;DHT22;14973;51.460;7.008;2023-03-23T01:52:40;12.60;99.90
27534;DHT22;14973;51.460;7.008;2023-03-23T01:55:06;12.60;99.90
27534;DHT22;14973;51.460;7.008;2023-03-23T01:57:32;12.60;99.90
27534;DHT22;14973;51.460;7.008;2023-03-23T02:00:03;12.60;99.90
27534;DHT22;14973;51.460;7.008;2023-03-23T02:02:49;12.60;99.90
27534;DHT22;14973;51.460;7.008;2023-03-23T02:05:34;12.50;99.90
27534;DHT22;14973;51.460;7.008;2023-03-23T02:08:03;12.60;99.90
27534;DHT22;14973;51.460;7.008;2023-03-23T02:10:31;12.60;99.90
27534;DHT22;14973;51.460;7.008;2023-03-23T02:12:59;12.50;99.90
27534;DHT22;14973;51.460;7.008;2023-03-23T02:15:30;12.50;99.90
27534;DHT22;14973;51.460;7.008;2023-03-23T02:20:38;12.50;99.90
27534;DHT22;14973;51.460;7.008;2023-03-23T02:28:38;12.50;99.90
27534;DHT22;14973;51.460;7.008;2023-03-23T02:31:20;12.50;99.90
27534;DHT22;14973;51.460;7.008;2023-03-23T02:34:16;12.40;99.90
27534;DHT22;14973;51.460;7.008;2023-03-23T02:42:05;12.40;99.90
27534;DHT22;14973;51.460;7.008;2023-03-23T02:44:33;12.30;99.90
27534;DHT22;14973;51.460;7.008;2023-03-23T02:47:02;12.30;99.90
27534;DHT22;14973;51.460;7.008;2023-03-23T02:49:31;12.20;99.90
27534;DHT22;14973;51.460;7.008;2023-03-23T02:51:59;12.20;99.90
27534;DHT22;14973;51.460;7.008;2023-03-23T02:54:27;12.20;99.90
27534;DHT22;14973;51.460;7.008;2023-03-23T02:56:54;12.20;99.90
27534;DHT22;14973;51.460;7.008;2023-03-23T02:59:21;12.20;99.90
27534;DHT22;14973;51.460;7.008;2023-03-23T03:02:05;12.10;99.90
27534;DHT22;14973;51.460;7.008;2023-03-23T03:04:33;12.10;99.90
27534;DHT22;14973;51.460;7.008;2023-03-23T03:10:23;12.10;99.90
27534;DHT22;14973;51.460;7.008;2023-03-23T03:13:03;12.00;99.90
27534;DHT22;14973;51.460;7.008;2023-03-23T03:15:40;12.10;99.90
27534;DHT22;14973;51.460;7.008;2023-03-23T03:18:20;12.10;99.90
27534;DHT22;14973;51.460;7.008;2023-03-23T03:20:51;12.10;99.90
27534;DHT22;14973;51.460;7.008;2023-03-23T03:23:20;12.10;99.90
27534;DHT22;14973;51.460;7.008;2023-03-23T03:25:47;12.10;99.90
27534;DHT22;14973;51.460;7.008;2023-03-23T03:28:19;12.20;99.90
27534;DHT22;14973;51.460;7.008;2023-03-23T03:30:52;12.10;99.90
27534;DHT22;14973;51.460;7.008;2023-03-23T03:33:20;12.10;99.90
27534;DHT22;14973;51.460;7.008;2023-03-23T03:35:51;12.20;99.90
27534;DHT22;14973;51.460;7.008;2023-03-23T03:38:17;12.10;99.90
27534;DHT22;14973;51.460;7.008;2023-03-23T03:40:43;12.10;99.90
27534;DHT22;14973;51.460;7.008;2023-03-23T03:43:08;12.20;99.90
27534;DHT22;14973;51.460;7.008;2023-03-23T03:45:34;12.20;99.90
27534;DHT22;14973;51.460;7.008;2023-03-23T03:48:00;12.20;99.90
27534;DHT22;14973;51.460;7.008;2023-03-23T03:50:27;12.30;99.90
27534;DHT22;14973;51.460;7.008;2023-03-23T03:52:52;12.30;99.90
27534;DHT22;14973;51.460;7.008;2023-03-23T03:55:18;12.30;99.90
27534;DHT22;14973;51.460;7.008;2023-03-23T03:57:44;12.30;99.90
27534;DHT22;14973;51.460;7.008;2023-03-23T04:00:10;12.30;99.90
27534;DHT22;14973;51.460;7.008;2023-03-23T04:02:46;12.30;99.90
27534;DHT22;14973;51.460;7.008;2023-03-23T04:05:19;12.30;99.90
27534;DHT22;14973;51.460;7.008;2023-03-23T04:07:46;12.30;99.90
27534;DHT22;14973;51.460;7.008;2023-03-23T04:10:15;12.30;99.90
27534;DHT22;14973;51.460;7.008;2023-03-23T04:12:40;12.30;99.90
27534;DHT22;14973;51.460;7.008;2023-03-23T04:15:07;12.30;99.90
27534;DHT22;14973;51.460;7.008;2023-03-23T04:17:34;12.30;99.90
27534;DHT22;14973;51.460;7.008;2023-03-23T04:19:59;12.30;99.90
27534;DHT22;14973;51.460;7.008;2023-03-23T04:22:26;12.30;99.90
27534;DHT22;14973;51.460;7.008;2023-03-23T04:24:59;12.20;99.90
27534;DHT22;14973;51.460;7.008;2023-03-23T04:27:26;12.20;99.90
27534;DHT22;14973;51.460;7.008;2023-03-23T04:29:56;12.30;99.90
27534;DHT22;14973;51.460;7.008;2023-03-23T04:32:24;12.30;99.90
27534;DHT22;14973;51.460;7.008;2023-03-23T04:34:54;12.30;99.90
27534;DHT22;14973;51.460;7.008;2023-03-23T04:37:20;12.30;99.90
27534;DHT22;14973;51.460;7.008;2023-03-23T04:39:46;12.30;99.90
27534;DHT22;14973;51.460;7.008;2023-03-23T04:42:11;12.30;99.90
27534;DHT22;14973;51.460;7.008;2023-03-23T04:44:39;12.40;99.90
27534;DHT22;14973;51.460;7.008;2023-03-23T04:47:04;12.40;99.90
27534;DHT22;14973;51.460;7.008;2023-03-23T04:49:30;12.40;99.90
27534;DHT22;14973;51.460;7.008;2023-03-23T04:51:55;12.40;99.90
27534;DHT22;14973;51.460;7.008;2023-03-23T04:54:22;12.40;99.90
27534;DHT22;14973;51.460;7.008;2023-03-23T04:56:47;12.40;99.90
27534;DHT22;14973;51.460;7.008;2023-03-23T04:59:13;12.50;99.90
27534;DHT22;14973;51.460;7.008;2023-03-23T05:01:40;12.50;99.90
27534;DHT22;14973;51.460;7.008;2023-03-23T05:04:11;12.50;99.90
27534;DHT22;14973;51.460;7.008;2023-03-23T05:06:38;12.50;99.90
27534;DHT22;14973;51.460;7.008;2023-03-23T05:09:03;12.60;99.90
27534;DHT22;14973;51.460;7.008;2023-03-23T05:11:30;12.60;99.90
27534;DHT22;14973;51.460;7.008;2023-03-23T05:13:55;12.60;99.90
27534;DHT22;14973;51.460;7.008;2023-03-23T05:16:21;12.50;99.90
27534;DHT22;14973;51.460;7.008;2023-03-23T05:18:47;12.60;99.90
27534;DHT22;14973;51.460;7.008;2023-03-23T05:21:13;12.60;99.90
27534;DHT22;14973;51.460;7.008;2023-03-23T05:23:39;12.60;99.90
27534;DHT22;14973;51.460;7.008;2023-03-23T05:26:05;12.50;99.90
27534;DHT22;14973;51.460;7.008;2023-03-23T05:28:32;12.60;99.90
27534;DHT22;14973;51.460;7.008;2023-03-23T05:30:57;12.60;99.90
27534;DHT22;14973;51.460;7.008;2023-03-23T05:33:23;12.50;99.90
27534;DHT22;14973;51.460;7.008;2023-03-23T05:35:49;12.60;99.90
27534;DHT22;14973;51.460;7.008;2023-03-23T05:38:15;12.60;99.90
27534;DHT22;14973;51.460;7.008;2023-03-23T05:40:41;12.60;99.90
27534;DHT22;14973;51.460;7.008;2023-03-23T05:43:08;12.70;99.90
27534;DHT22;14973;51.460;7.008;2023-03-23T05:45:34;12.60;99.90
27534;DHT22;14973;51.460;7.008;2023-03-23T05:48:00;12.60;99.90
27534;DHT22;14973;51.460;7.008;2023-03-23T05:50:26;12.60;99.90
27534;DHT22;14973;51.460;7.008;2023-03-23T05:52:54;12.60;99.90
27534;DHT22;14973;51.460;7.008;2023-03-23T05:55:20;12.70;99.90
27534;DHT22;14973;51.460;7.008;2023-03-23T05:57:46;12.70;99.90
27534;DHT22;14973;51.460;7.008;2023-03-23T06:00:12;12.70;99.90
27534;DHT22;14973;51.460;7.008;2023-03-23T06:02:47;12.80;99.90
27534;DHT22;14973;51.460;7.008;2023-03-23T06:05:13;12.70;99.90
27534;DHT22;14973;51.460;7.008;2023-03-23T06:07:41;12.80;99.90
27534;DHT22;14973;51.460;7.008;2023-03-23T06:10:07;12.80;99.90
27534;DHT22;14973;51.460;7.008;2023-03-23T06:12:34;12.70;99.90
27534;DHT22;14973;51.460;7.008;2023-03-23T06:15:00;12.80;99.90
27534;DHT22;14973;51.460;7.008;2023-03-23T06:17:26;12.90;99.90
27534;DHT22;14973;51.460;7.008;2023-03-23T06:19:52;12.80;99.90
27534;DHT22;14973;51.460;7.008;2023-03-23T06:22:18;12.80;99.90
27534;DHT22;14973;51.460;7.008;2023-03-23T06:24:44;12.80;99.90
27534;DHT22;14973;51.460;7.008;2023-03-23T06:27:10;12.80;99.90
27534;DHT22;14973;51.460;7.008;2023-03-23T06:29:36;12.90;99.90
27534;DHT22;14973;51.460;7.008;2023-03-23T06:32:04;12.90;99.90
27534;DHT22;14973;51.460;7.008;2023-03-23T06:34:30;12.90;99.90
27534;DHT22;14973;51.460;7.008;2023-03-23T06:36:58;13.00;99.90
27534;DHT22;14973;51.460;7.008;2023-03-23T06:39:24;13.00;99.90
27534;DHT22;14973;51.460;7.008;2023-03-23T06:41:50;13.10;99.90
27534;DHT22;14973;51.460;7.008;2023-03-23T06:44:16;13.10;99.90
27534;DHT22;14973;51.460;7.008;2023-03-23T06:46:42;13.10;99.90
27534;DHT22;14973;51.460;7.008;2023-03-23T06:49:08;13.10;99.90
27534;DHT22;14973;51.460;7.008;2023-03-23T06:51:35;13.10;99.90
27534;DHT22;14973;51.460;7.008;2023-03-23T06:54:02;13.10;99.90
27534;DHT22;14973;51.460;7.008;2023-03-23T06:56:28;13.20;99.90
27534;DHT22;14973;51.460;7.008;2023-03-23T06:58:55;13.20;99.90
27534;DHT22;14973;51.460;7.008;2023-03-23T07:01:21;13.40;99.90
27534;DHT22;14973;51.460;7.008;2023-03-23T07:03:47;13.40;99.90
27534;DHT22;14973;51.460;7.008;2023-03-23T07:06:14;13.40;99.90
27534;DHT22;14973;51.460;7.008;2023-03-23T07:08:40;13.50;99.90
27534;DHT22;14973;51.460;7.008;2023-03-23T07:11:06;13.50;99.90
27534;DHT22;14973;51.460;7.008;2023-03-23T07:13:32;13.60;99.90
27534;DHT22;14973;51.460;7.008;2023-03-23T07:15:58;13.60;99.90
27534;DHT22;14973;51.460;7.008;2023-03-23T07:18:23;13.60;99.90
27534;DHT22;14973;51.460;7.008;2023-03-23T07:20:50;13.60;99.90
27534;DHT22;14973;51.460;7.008;2023-03-23T07:23:17;13.50;99.90
27534;DHT22;14973;51.460;7.008;2023-03-23T07:25:43;13.50;99.90
27534;DHT22;14973;51.460;7.008;2023-03-23T07:28:10;13.50;99.90
27534;DHT22;14973;51.460;7.008;2023-03-23T07:30:36;13.60;99.90
27534;DHT22;14973;51.460;7.008;2023-03-23T07:33:04;13.60;99.90
27534;DHT22;14973;51.460;7.008;2023-03-23T07:35:31;13.60;99.90
27534;DHT22;14973;51.460;7.008;2023-03-23T07:37:57;13.60;99.90
27534;DHT22;14973;51.460;7.008;2023-03-23T07:40:23;13.60;99.90
27534;DHT22;14973;51.460;7.008;2023-03-23T07:42:53;13.60;99.90
27534;DHT22;14973;51.460;7.008;2023-03-23T07:45:19;13.60;99.90
27534;DHT22;14973;51.460;7.008;2023-03-23T07:47:44;13.60;99.90
27534;DHT22;14973;51.460;7.008;2023-03-23T07:50:10;13.60;99.90
27534;DHT22;14973;51.460;7.008;2023-03-23T07:52:38;13.60;99.90
27534;DHT22;14973;51.460;7.008;2023-03-23T07:55:05;13.50;99.90
27534;DHT22;14973;51.460;7.008;2023-03-23T07:57:31;13.50;99.90
27534;DHT22;14973;51.460;7.008;2023-03-23T07:59:58;13.40;99.90
27534;DHT22;14973;51.460;7.008;2023-03-23T08:02:24;13.50;99.90
27534;DHT22;14973;51.460;7.008;2023-03-23T08:04:49;13.60;99.90
27534;DHT22;14973;51.460;7.008;2023-03-23T08:07:16;13.60;99.90
27534;DHT22;14973;51.460;7.008;2023-03-23T08:09:43;13.60;99.90
27534;DHT22;14973;51.460;7.008;2023-03-23T08:12:08;13.60;99.90
27534;DHT22;14973;51.460;7.008;2023-03-23T08:14:34;13.70;99.90
27534;DHT22;14973;51.460;7.008;2023-03-23T08:17:00;13.70;99.90
27534;DHT22;14973;51.460;7.008;2023-03-23T08:19:25;13.70;99.90
27534;DHT22;14973;51.460;7.008;2023-03-23T08:21:52;13.80;99.90
27534;DHT22;14973;51.460;7.008;2023-03-23T08:24:17;13.90;99.90
27534;DHT22;14973;51.460;7.008;2023-03-23T08:26:44;14.00;99.90
27534;DHT22;14973;51.460;7.008;2023-03-23T08:29:10;14.10;99.90
27534;DHT22;14973;51.460;7.008;2023-03-23T08:31:35;14.20;99.90
27534;DHT22;14973;51.460;7.008;2023-03-23T08:34:03;14.30;99.90
27534;DHT22;14973;51.460;7.008;2023-03-23T08:36:30;14.30;99.90
27534;DHT22;14973;51.460;7.008;2023-03-23T08:38:57;14.50;99.90
27534;DHT22;14973;51.460;7.008;2023-03-23T08:41:23;14.60;99.90
27534;DHT22;14973;51.460;7.008;2023-03-23T08:43:49;14.80;99.90
27534;DHT22;14973;51.460;7.008;2023-03-23T08:46:15;15.00;99.90
27534;DHT22;14973;51.460;7.008;2023-03-23T08:48:42;15.10;99.90
27534;DHT22;14973;51.460;7.008;2023-03-23T08:51:09;15.30;99.90
27534;DHT22;14973;51.460;7.008;2023-03-23T08:53:35;15.20;99.90
27534;DHT22;14973;51.460;7.008;2023-03-23T08:56:06;15.30;99.90
27534;DHT22;14973;51.460;7.008;2023-03-23T08:58:34;15.20;99.90
27534;DHT22;14973;51.460;7.008;2023-03-23T09:01:00;15.00;99.90
27534;DHT22;14973;51.460;7.008;2023-03-23T09:03:26;15.10;99.90
27534;DHT22;14973;51.460;7.008;2023-03-23T09:05:52;15.00;99.90
27534;DHT22;14973;51.460;7.008;2023-03-23T09:08:19;15.00;99.90
27534;DHT22;14973;51.460;7.008;2023-03-23T09:10:45;14.90;99.90
27534;DHT22;14973;51.460;7.008;2023-03-23T09:13:11;14.70;99.90
27534;DHT22;14973;51.460;7.008;2023-03-23T09:15:36;14.60;99.90
27534;DHT22;14973;51.460;7.008;2023-03-23T09:18:02;14.50;99.90
27534;DHT22;14973;51.460;7.008;2023-03-23T09:20:29;14.40;99.90
27534;DHT22;14973;51.460;7.008;2023-03-23T09:22:56;14.30;99.90
27534;DHT22;14973;51.460;7.008;2023-03-23T09:25:25;14.30;99.90
27534;DHT22;14973;51.460;7.008;2023-03-23T09:27:57;14.20;99.90
27534;DHT22;14973;51.460;7.008;2023-03-23T09:30:26;14.10;99.90
27534;DHT22;14973;51.460;7.008;2023-03-23T09:32:53;14.10;99.90
27534;DHT22;14973;51.460;7.008;2023-03-23T09:35:19;14.10;99.90
27534;DHT22;14973;51.460;7.008;2023-03-23T09:37:48;14.20;99.90
27534;DHT22;14973;51.460;7.008;2023-03-23T09:40:22;14.30;99.90
27534;DHT22;14973;51.460;7.008;2023-03-23T09:45:48;14.20;99.90
27534;DHT22;14973;51.460;7.008;2023-03-23T09:48:27;14.20;99.90
27534;DHT22;14973;51.460;7.008;2023-03-23T09:51:00;14.10;99.90
27534;DHT22;14973;51.460;7.008;2023-03-23T09:53:42;14.00;99.90
27534;DHT22;14973;51.460;7.008;2023-03-23T09:56:12;14.00;99.90
27534;DHT22;14973;51.460;7.008;2023-03-23T10:01:21;13.80;99.90
27534;DHT22;14973;51.460;7.008;2023-03-23T10:03:49;13.40;99.90
27534;DHT22;14973;51.460;7.008;2023-03-23T10:06:18;12.60;99.90
27534;DHT22;14973;51.460;7.008;2023-03-23T10:08:50;12.10;99.90
27534;DHT22;14973;51.460;7.008;2023-03-23T10:16:31;11.60;99.90
27534;DHT22;14973;51.460;7.008;2023-03-23T10:19:18;11.70;99.90
27534;DHT22;14973;51.460;7.008;2023-03-23T10:21:50;11.70;99.90
27534;DHT22;14973;51.460;7.008;2023-03-23T10:24:21;11.60;99.90
27534;DHT22;14973;51.460;7.008;2023-03-23T10:30:03;11.50;99.90
27534;DHT22;14973;51.460;7.008;2023-03-23T10:35:14;11.40;99.90
27534;DHT22;14973;51.460;7.008;2023-03-23T10:38:10;11.40;99.90
27534;DHT22;14973;51.460;7.008;2023-03-23T10:40:49;11.50;99.90
27534;DHT22;14973;51.460;7.008;2023-03-23T10:43:15;11.60;99.90
27534;DHT22;14973;51.460;7.008;2023-03-23T10:45:44;11.70;99.90
27534;DHT22;14973;51.460;7.008;2023-03-23T10:48:15;11.90;99.90
27534;DHT22;14973;51.460;7.008;2023-03-23T10:50:44;11.90;99.90
27534;DHT22;14973;51.460;7.008;2023-03-23T10:53:19;11.90;99.90
27534;DHT22;14973;51.460;7.008;2023-03-23T10:55:46;11.90;99.90
27534;DHT22;14973;51.460;7.008;2023-03-23T10:58:32;12.20;99.90
27534;DHT22;14973;51.460;7.008;2023-03-23T11:00:58;12.50;99.90
27534;DHT22;14973;51.460;7.008;2023-03-23T11:06:02;12.60;99.90
27534;DHT22;14973;51.460;7.008;2023-03-23T11:08:35;12.50;99.90
27534;DHT22;14973;51.460;7.008;2023-03-23T11:11:27;12.40;99.90
27534;DHT22;14973;51.460;7.008;2023-03-23T11:14:02;12.20;99.90
27534;DHT22;14973;51.460;7.008;2023-03-23T11:18:54;11.80;99.90
27534;DHT22;14973;51.460;7.008;2023-03-23T11:21:22;11.70;99.90
27534;DHT22;14973;51.460;7.008;2023-03-23T11:23:59;11.60;99.90
27534;DHT22;14973;51.460;7.008;2023-03-23T11:26:29;11.50;99.90
27534;DHT22;14973;51.460;7.008;2023-03-23T11:29:05;11.40;99.90
27534;DHT22;14973;51.460;7.008;2023-03-23T11:31:42;11.40;99.90
27534;DHT22;14973;51.460;7.008;2023-03-23T11:34:21;11.50;99.90
27534;DHT22;14973;51.460;7.008;2023-03-23T11:36:54;11.50;99.90
27534;DHT22;14973;51.460;7.008;2023-03-23T11:41:47;11.60;99.90
27534;DHT22;14973;51.460;7.008;2023-03-23T11:44:13;11.70;99.90
27534;DHT22;14973;51.460;7.008;2023-03-23T11:49:28;11.80;99.90
27534;DHT22;14973;51.460;7.008;2023-03-23T11:52:09;11.80;99.90
27534;DHT22;14973;51.460;7.008;2023-03-23T11:54:43;11.90;99.90
27534;DHT22;14973;51.460;7.008;2023-03-23T11:57:12;12.10;99.90
27534;DHT22;14973;51.460;7.008;2023-03-23T11:59:40;12.30;99.90
27534;DHT22;14973;51.460;7.008;2023-03-23T12:08:11;12.70;99.90
27534;DHT22;14973;51.460;7.008;2023-03-23T12:10:38;12.80;99.90
27534;DHT22;14973;51.460;7.008;2023-03-23T12:13:31;12.60;99.90
27534;DHT22;14973;51.460;7.008;2023-03-23T12:16:23;12.50;99.90
27534;DHT22;14973;51.460;7.008;2023-03-23T12:34:57;12.20;99.90
27534;DHT22;14973;51.460;7.008;2023-03-23T12:40:48;12.40;99.90
27534;DHT22;14973;51.460;7.008;2023-03-23T12:48:36;12.60;99.90
27534;DHT22;14973;51.460;7.008;2023-03-23T12:54:11;12.90;99.90
27534;DHT22;14973;51.460;7.008;2023-03-23T12:59:47;13.30;99.90
27534;DHT22;14973;51.460;7.008;2023-03-23T13:02:29;13.60;99.90
27534;DHT22;14973;51.460;7.008;2023-03-23T13:05:26;13.70;99.90
27534;DHT22;14973;51.460;7.008;2023-03-23T13:07:49;13.60;99.90
27534;DHT22;14973;51.460;7.008;2023-03-23T13:10:28;13.60;99.90
27534;DHT22;14973;51.460;7.008;2023-03-23T13:12:56;13.70;99.90
27534;DHT22;14973;51.460;7.008;2023-03-23T13:18:17;13.70;99.90
27534;DHT22;14973;51.460;7.008;2023-03-23T13:23:50;13.80;99.90
27534;DHT22;14973;51.460;7.008;2023-03-23T13:26:20;13.80;99.90
27534;DHT22;14973;51.460;7.008;2023-03-23T13:31:45;14.00;99.90
27534;DHT22;14973;51.460;7.008;2023-03-23T13:34:20;14.10;99.90
27534;DHT22;14973;51.460;7.008;2023-03-23T13:36:56;14.10;99.90
27534;DHT22;14973;51.460;7.008;2023-03-23T13:49:54;13.70;99.90
27534;DHT22;14973;51.460;7.008;2023-03-23T13:52:36;13.70;99.90
27534;DHT22;14973;51.460;7.008;2023-03-23T14:03:02;14.30;99.90
27534;DHT22;14973;51.460;7.008;2023-03-23T14:08:22;14.60;99.90
27534;DHT22;14973;51.460;7.008;2023-03-23T14:14:05;14.70;99.90
27534;DHT22;14973;51.460;7.008;2023-03-23T14:19:27;14.60;99.90
27534;DHT22;14973;51.460;7.008;2023-03-23T14:21:57;14.50;99.90
27534;DHT22;14973;51.460;7.008;2023-03-23T14:24:32;14.60;99.90
27534;DHT22;14973;51.460;7.008;2023-03-23T14:29:34;14.90;99.90
27534;DHT22;14973;51.460;7.008;2023-03-23T14:32:00;14.80;99.90
27534;DHT22;14973;51.460;7.008;2023-03-23T14:34:29;14.60;99.90
27534;DHT22;14973;51.460;7.008;2023-03-23T14:36:57;14.50;99.90
27534;DHT22;14973;51.460;7.008;2023-03-23T14:39:27;14.60;99.90
27534;DHT22;14973;51.460;7.008;2023-03-23T14:42:03;14.60;99.90
27534;DHT22;14973;51.460;7.008;2023-03-23T14:44:31;14.50;99.90
27534;DHT22;14973;51.460;7.008;2023-03-23T14:47:02;14.50;99.90
27534;DHT22;14973;51.460;7.008;2023-03-23T14:49:37;14.50;99.90
27534;DHT22;14973;51.460;7.008;2023-03-23T14:52:15;14.40;99.90
27534;DHT22;14973;51.460;7.008;2023-03-23T14:54:42;14.30;99.90
27534;DHT22;14973;51.460;7.008;2023-03-23T14:57:17;14.30;99.90
27534;DHT22;14973;51.460;7.008;2023-03-23T14:59:45;14.30;99.90
27534;DHT22;14973;51.460;7.008;2023-03-23T15:02:25;14.30;99.90
27534;DHT22;14973;51.460;7.008;2023-03-23T15:04:59;14.50;99.90
27534;DHT22;14973;51.460;7.008;2023-03-23T15:07:30;14.60;99.90
27534;DHT22;14973;51.460;7.008;2023-03-23T15:09:57;14.60;99.90
27534;DHT22;14973;51.460;7.008;2023-03-23T15:12:29;14.60;99.90
27534;DHT22;14973;51.460;7.008;2023-03-23T15:15:02;14.50;99.90
27534;DHT22;14973;51.460;7.008;2023-03-23T15:17:32;14.60;99.90
27534;DHT22;14973;51.460;7.008;2023-03-23T15:20:29;14.60;99.90
27534;DHT22;14973;51.460;7.008;2023-03-23T15:22:53;14.60;99.90
27534;DHT22;14973;51.460;7.008;2023-03-23T15:25:22;14.50;99.90
27534;DHT22;14973;51.460;7.008;2023-03-23T15:28:27;14.50;99.90
27534;DHT22;14973;51.460;7.008;2023-03-23T15:30:53;14.50;99.90
27534;DHT22;14973;51.460;7.008;2023-03-23T15:33:20;14.60;99.90
27534;DHT22;14973;51.460;7.008;2023-03-23T15:35:54;14.60;99.90
27534;DHT22;14973;51.460;7.008;2023-03-23T15:40:56;14.60;99.90
27534;DHT22;14973;51.460;7.008;2023-03-23T15:43:25;14.50;99.90
27534;DHT22;14973;51.460;7.008;2023-03-23T15:46:22;14.60;99.90
27534;DHT22;14973;51.460;7.008;2023-03-23T15:48:52;14.60;99.90
27534;DHT22;14973;51.460;7.008;2023-03-23T15:51:22;14.70;99.90
27534;DHT22;14973;51.460;7.008;2023-03-23T15:53:50;14.70;99.90
27534;DHT22;14973;51.460;7.008;2023-03-23T15:56:17;14.80;99.90
27534;DHT22;14973;51.460;7.008;2023-03-23T15:58:44;14.70;99.90
27534;DHT22;14973;51.460;7.008;2023-03-23T16:01:24;14.70;99.90
27534;DHT22;14973;51.460;7.008;2023-03-23T16:03:51;14.80;99.90
27534;DHT22;14973;51.460;7.008;2023-03-23T16:06:20;14.80;99.90
27534;DHT22;14973;51.460;7.008;2023-03-23T16:08:47;14.70;99.90
27534;DHT22;14973;51.460;7.008;2023-03-23T16:11:15;14.80;99.90
27534;DHT22;14973;51.460;7.008;2023-03-23T16:13:41;14.70;99.90
27534;DHT22;14973;51.460;7.008;2023-03-23T16:16:15;14.80;99.90
27534;DHT22;14973;51.460;7.008;2023-03-23T16:18:41;14.70;99.90
27534;DHT22;14973;51.460;7.008;2023-03-23T16:21:07;14.60;99.90
27534;DHT22;14973;51.460;7.008;2023-03-23T16:23:33;14.70;99.90
27534;DHT22;14973;51.460;7.008;2023-03-23T16:25:58;14.70;99.90
27534;DHT22;14973;51.460;7.008;2023-03-23T16:28:24;14.70;99.90
27534;DHT22;14973;51.460;7.008;2023-03-23T16:30:50;14.80;99.90
27534;DHT22;14973;51.460;7.008;2023-03-23T16:33:15;14.70;99.90
27534;DHT22;14973;51.460;7.008;2023-03-23T16:35:41;14.70;99.90
27534;DHT22;14973;51.460;7.008;2023-03-23T16:38:14;14.70;99.90
27534;DHT22;14973;51.460;7.008;2023-03-23T16:40:42;14.80;99.90
27534;DHT22;14973;51.460;7.008;2023-03-23T16:43:08;14.70;99.90
27534;DHT22;14973;51.460;7.008;2023-03-23T16:45:34;14.60;99.90
27534;DHT22;14973;51.460;7.008;2023-03-23T16:48:00;14.50;99.90
27534;DHT22;14973;51.460;7.008;2023-03-23T16:50:28;14.40;99.90
27534;DHT22;14973;51.460;7.008;2023-03-23T16:52:54;14.40;99.90
27534;DHT22;14973;51.460;7.008;2023-03-23T16:55:20;14.30;99.90
27534;DHT22;14973;51.460;7.008;2023-03-23T16:57:46;14.30;99.90
27534;DHT22;14973;51.460;7.008;2023-03-23T17:00:15;14.30;99.90
27534;DHT22;14973;51.460;7.008;2023-03-23T17:02:45;14.20;99.90
27534;DHT22;14973;51.460;7.008;2023-03-23T17:05:12;14.20;99.90
27534;DHT22;14973;51.460;7.008;2023-03-23T17:07:39;14.10;99.90
27534;DHT22;14973;51.460;7.008;2023-03-23T17:10:08;14.10;99.90
27534;DHT22;14973;51.460;7.008;2023-03-23T17:12:35;14.10;99.90
27534;DHT22;14973;51.460;7.008;2023-03-23T17:15:01;14.20;99.90
27534;DHT22;14973;51.460;7.008;2023-03-23T17:17:27;14.20;99.90
27534;DHT22;14973;51.460;7.008;2023-03-23T17:19:53;14.10;99.90
27534;DHT22;14973;51.460;7.008;2023-03-23T17:22:19;14.10;99.90
27534;DHT22;14973;51.460;7.008;2023-03-23T17:24:44;13.90;99.90
27534;DHT22;14973;51.460;7.008;2023-03-23T17:27:15;14.00;99.90
27534;DHT22;14973;51.460;7.008;2023-03-23T17:29:42;14.00;99.90
27534;DHT22;14973;51.460;7.008;2023-03-23T17:32:08;14.00;99.90
27534;DHT22;14973;51.460;7.008;2023-03-23T17:34:34;14.00;99.90
27534;DHT22;14973;51.460;7.008;2023-03-23T17:36:59;14.00;99.90
27534;DHT22;14973;51.460;7.008;2023-03-23T17:39:25;14.00;99.90
27534;DHT22;14973;51.460;7.008;2023-03-23T17:41:50;13.90;99.90
27534;DHT22;14973;51.460;7.008;2023-03-23T17:44:16;13.90;99.90
27534;DHT22;14973;51.460;7.008;2023-03-23T17:46:41;13.90;99.90